Marathon, FL

9:50 PM EDT on July 03, 2015 (GMT -0400)
Key Colony Beach FL | | Change Station
CLOSE
Current Station
Personal Weather Station
Location: Marathon, FL
Elevation: 10 ft
Nearby Weather Stations

Elev 10 ft 24.72 °N, 81.02 °W | Updated 19 minutes ago

Clear
Clear
85.1 °F
Feels Like 107 °F
N
6.0
Wind Variable Wind from ENE
Gusts 8.0 mph

Today
High -- | Low -- °F
--% Chance of Precip.
Yesterday
High -- | Low -- °F
Precip. -- in
6:39 AM 8:17 PM
Waning Gibbous, 95% visible
Pressure 30.04 in
Visibility 10.0 miles
Clouds Clear
Heat Index 107 °F
Dew Point 85 °F
Humidity 100%
Rainfall 0.00 in
Snow Depth Not available.
UV 0 out of 12
Pollen 3.90 out of 12
Air Quality Not available.
Flu Activity Not available.
METAR KNQX 040053Z AUTO 10013KT 10SM CLR 29/24 A3005 RMK AO2 TSE2358 SLP173 T02940244

More Conditions Fewer Conditions

Pressure 30.04 in
Visibility 10.0 miles
Clouds Clear
Heat Index 107 °F
Dew Point 85 °F
Humidity 100%
Rainfall 0.00 in
Snow Depth Not available.
UV 0 out of 12
Pollen 3.90 out of 12
Air Quality Not available.
Flu Activity Not available.
METAR KNQX 040053Z AUTO 10013KT 10SM CLR 29/24 A3005 RMK AO2 TSE2358 SLP173 T02940244

More Conditions Fewer Conditions

Nowcast | as of 8:55 PM EDT on July 3, 2015

Until 10 PM...scattered showers and isolated thunderstorms will impact the nearshore and offshore waters surrounding the middle and Upper Keys...as well as the outer waters of Mainland Monroe. Movement of most activity will be toward the west at 10 to 15 knots. The majority and stronger cells will be found on the nearshore Gulf waters out 20 nm north of the Middle Keys...as well as the outer waters beyond 40 nm west of the Mainland Monroe coast. Over land...a few showers may cross the middle and Upper Keys. Stronger cells will deliver wind gusts of 25 to 30 knots...cut visibility to below 4 miles in moderate to heavy rain and occasional cloud to water lightning strikes.

×

10-Day Weather Forecast

×

Almanac

Astronomy

Jul. 03, 2015 Rise Set
Actual Time
Civil Twilight
Nautical Twilight
Astronomical Twilight
Moon
Length of Visible Light
Length of Day
Tomorrow will be .
, % of the Moon is Illuminated

Today's Extremes

State Highs State Lows

Community

WunderPhotos

Upload Photos

1,834,868 photos uploaded!

WunderBlogs® & News

Nearby

Air Quality

  Air Quality AQ Index Pollutant
Not available.

Snow Depth

Station Depth Elevation

Earthquake Activity

City Distance Mag. Time & Date
Minimum magnitude displayed is 2.5.

Coastal Water Temperatures

Place Temperature

Stations

Nearby Weather Stations

Station Location Temp. Windchill Dew Point Humidity Wind Precip. Elev Updated Type